Airfield :
LOGIN :

Register | Disclaimer

   EN    FR    IT 

 










Legend :    VFR   Marginal VFR   IFR   Intensive IFR   Very Intensive IFR
Visi :
Ceiling :
>= 8 km
>= 3000ft
5 to 8 km
1000 to 3000 ft
1500m to 5 km
500 to 1000 ft
800 to 1500m
200 to 500 ft
< 800m
< 200 ft
Symbols :   Thunderstorms  Fog  Heavy snow  Heavy precipitations  Wind > 20 kt
SIGMETs :     Misc.  Thunderstorms  Icing  Turbulence  Mountain Waves  Volcanic Ashes






- Airport Elevation : 1649 ft
- IATA code : HHN


EDFH - Frankfurt-Hahn Rhineland-Palatinate

CURRENT METAR :
  • 280050Z 30006KT CAVOK 07/03 Q1022

EXPIRED METARs :
  • 280020Z 30006KT CAVOK 07/03 Q1022
  • 272350Z 30006KT CAVOK 07/04 Q1022
  • 272320Z 30003KT 290V010 CAVOK 08/04 Q1022
  • 272250Z 32006KT CAVOK 08/03 Q1023
  • 272220Z 32005KT CAVOK 09/03 Q1023

TAF TAF EDFH
Valid from the 28 at 00:00 until the 29 at 00:00 UTC


272300Z 2800/2824 31007KT 9999 FEW045
PROB30
TEMPO 2810/2815 34015G25KT SHRA BKN025TCU



MET'MAP, your aeronautical weather chart ! - Copyright ORBIFLY December 2007 - Disclaimer

ORBIFLY MET'MAP TEAM :

Programming & Development : Alexandra Zaïnal
Original concept : Baudouin d'Aumeries
Technical & hardware support : Manuel Goepfert
Assistance : Marc-Olivier Méhu

Contact : metmap@orbifly.com




SOURCES & CREDITS :

   NOAA